sensor_id;sensor_type;location;lat;lon;timestamp;pressure;altitude;pressure_sealevel;temperature;humidity
33155;BME280;19511;42.682;23.332;2022-08-19T00:01:18;94899.84;;;21.04;100.00
33155;BME280;19511;42.682;23.332;2022-08-19T00:03:44;94904.41;;;21.02;100.00
33155;BME280;19511;42.682;23.332;2022-08-19T00:06:09;94897.50;;;21.03;100.00
33155;BME280;19511;42.682;23.332;2022-08-19T00:08:35;94808.44;;;20.49;100.00
33155;BME280;19511;42.682;23.332;2022-08-19T00:11:00;94855.34;;;20.73;100.00
33155;BME280;19511;42.682;23.332;2022-08-19T00:13:26;94899.94;;;20.95;100.00
33155;BME280;19511;42.682;23.332;2022-08-19T00:15:54;94909.81;;;20.91;100.00
33155;BME280;19511;42.682;23.332;2022-08-19T00:18:20;94914.00;;;20.80;100.00
33155;BME280;19511;42.682;23.332;2022-08-19T00:20:46;94866.34;;;20.32;100.00
33155;BME280;19511;42.682;23.332;2022-08-19T00:23:11;94856.16;;;20.19;100.00
33155;BME280;19511;42.682;23.332;2022-08-19T00:25:37;94922.97;;;20.54;100.00
33155;BME280;19511;42.682;23.332;2022-08-19T00:28:03;94912.09;;;20.47;100.00
33155;BME280;19511;42.682;23.332;2022-08-19T00:30:29;94917.00;;;20.37;100.00
33155;BME280;19511;42.682;23.332;2022-08-19T00:32:55;94920.78;;;20.34;100.00
33155;BME280;19511;42.682;23.332;2022-08-19T00:35:21;94919.09;;;20.28;100.00
33155;BME280;19511;42.682;23.332;2022-08-19T00:37:50;94913.69;;;20.24;100.00
33155;BME280;19511;42.682;23.332;2022-08-19T00:40:16;94925.09;;;20.20;100.00
33155;BME280;19511;42.682;23.332;2022-08-19T00:42:43;94925.47;;;20.13;100.00
33155;BME280;19511;42.682;23.332;2022-08-19T00:45:25;94919.25;;;20.09;100.00
33155;BME280;19511;42.682;23.332;2022-08-19T00:47:51;94866.53;;;19.65;100.00
33155;BME280;19511;42.682;23.332;2022-08-19T00:50:18;94865.44;;;19.62;100.00
33155;BME280;19511;42.682;23.332;2022-08-19T00:52:47;94903.19;;;19.85;100.00
33155;BME280;19511;42.682;23.332;2022-08-19T00:55:20;94914.75;;;19.87;100.00
33155;BME280;19511;42.682;23.332;2022-08-19T00:57:55;94911.19;;;19.78;100.00
33155;BME280;19511;42.682;23.332;2022-08-19T01:00:22;94908.13;;;19.66;100.00
33155;BME280;19511;42.682;23.332;2022-08-19T01:02:48;94916.38;;;19.70;100.00
33155;BME280;19511;42.682;23.332;2022-08-19T01:05:17;94864.22;;;19.30;100.00
33155;BME280;19511;42.682;23.332;2022-08-19T01:07:46;94858.31;;;19.28;100.00
33155;BME280;19511;42.682;23.332;2022-08-19T01:10:20;94851.44;;;19.29;100.00
33155;BME280;19511;42.682;23.332;2022-08-19T01:12:48;94890.56;;;19.56;100.00
33155;BME280;19511;42.682;23.332;2022-08-19T01:15:18;94925.09;;;19.72;100.00
33155;BME280;19511;42.682;23.332;2022-08-19T01:17:45;94902.56;;;19.57;100.00
33155;BME280;19511;42.682;23.332;2022-08-19T01:20:19;94911.63;;;19.52;100.00
33155;BME280;19511;42.682;23.332;2022-08-19T01:25:10;94907.38;;;19.56;100.00
33155;BME280;19511;42.682;23.332;2022-08-19T01:27:41;94916.28;;;19.55;100.00
33155;BME280;19511;42.682;23.332;2022-08-19T01:30:11;94918.19;;;19.49;100.00
33155;BME280;19511;42.682;23.332;2022-08-19T01:32:37;94915.25;;;19.43;100.00
33155;BME280;19511;42.682;23.332;2022-08-19T01:35:04;94921.81;;;19.40;100.00
33155;BME280;19511;42.682;23.332;2022-08-19T01:37:40;94854.25;;;18.95;100.00
33155;BME280;19511;42.682;23.332;2022-08-19T01:40:07;94854.09;;;18.89;100.00
33155;BME280;19511;42.682;23.332;2022-08-19T01:42:33;94907.41;;;19.23;100.00
33155;BME280;19511;42.682;23.332;2022-08-19T01:45:00;94925.31;;;19.25;100.00
33155;BME280;19511;42.682;23.332;2022-08-19T01:47:25;94915.34;;;19.24;100.00
33155;BME280;19511;42.682;23.332;2022-08-19T01:49:51;94846.63;;;18.86;100.00
33155;BME280;19511;42.682;23.332;2022-08-19T01:52:16;94857.84;;;18.86;100.00
33155;BME280;19511;42.682;23.332;2022-08-19T01:54:42;94914.03;;;19.35;100.00
33155;BME280;19511;42.682;23.332;2022-08-19T01:57:11;94926.34;;;19.37;100.00
33155;BME280;19511;42.682;23.332;2022-08-19T01:59:40;94926.22;;;19.32;100.00
33155;BME280;19511;42.682;23.332;2022-08-19T02:02:06;94925.16;;;19.29;100.00
33155;BME280;19511;42.682;23.332;2022-08-19T02:04:36;94922.66;;;19.31;100.00
33155;BME280;19511;42.682;23.332;2022-08-19T02:07:03;94868.44;;;18.91;100.00
33155;BME280;19511;42.682;23.332;2022-08-19T02:09:30;94924.66;;;19.31;100.00
33155;BME280;19511;42.682;23.332;2022-08-19T02:11:56;94916.59;;;19.23;100.00
33155;BME280;19511;42.682;23.332;2022-08-19T02:14:21;94922.56;;;19.16;100.00
33155;BME280;19511;42.682;23.332;2022-08-19T02:16:47;94921.78;;;19.06;100.00
33155;BME280;19511;42.682;23.332;2022-08-19T02:19:13;94926.00;;;19.02;100.00
33155;BME280;19511;42.682;23.332;2022-08-19T02:21:38;94924.63;;;18.97;100.00
33155;BME280;19511;42.682;23.332;2022-08-19T02:24:04;94924.97;;;18.90;100.00
33155;BME280;19511;42.682;23.332;2022-08-19T02:26:31;94910.47;;;18.82;100.00
33155;BME280;19511;42.682;23.332;2022-08-19T02:28:57;94860.44;;;18.38;100.00
33155;BME280;19511;42.682;23.332;2022-08-19T02:31:24;94921.38;;;18.80;100.00
33155;BME280;19511;42.682;23.332;2022-08-19T02:33:50;94868.53;;;18.45;100.00
33155;BME280;19511;42.682;23.332;2022-08-19T02:36:17;94932.72;;;18.86;100.00
33155;BME280;19511;42.682;23.332;2022-08-19T02:38:43;94912.50;;;18.91;100.00
33155;BME280;19511;42.682;23.332;2022-08-19T02:41:21;94928.84;;;18.92;100.00
33155;BME280;19511;42.682;23.332;2022-08-19T02:43:47;94930.09;;;18.82;100.00
33155;BME280;19511;42.682;23.332;2022-08-19T02:46:23;94933.81;;;18.88;100.00
33155;BME280;19511;42.682;23.332;2022-08-19T02:48:51;94940.69;;;18.78;100.00
33155;BME280;19511;42.682;23.332;2022-08-19T02:51:26;94876.78;;;18.30;100.00
33155;BME280;19511;42.682;23.332;2022-08-19T02:53:53;94875.09;;;18.23;100.00
33155;BME280;19511;42.682;23.332;2022-08-19T02:56:19;94938.53;;;18.54;100.00
33155;BME280;19511;42.682;23.332;2022-08-19T02:58:46;94881.47;;;18.15;100.00
33155;BME280;19511;42.682;23.332;2022-08-19T03:01:26;94942.72;;;18.50;100.00
33155;BME280;19511;42.682;23.332;2022-08-19T03:04:04;94939.78;;;18.53;100.00
33155;BME280;19511;42.682;23.332;2022-08-19T03:06:43;94945.84;;;18.52;100.00
33155;BME280;19511;42.682;23.332;2022-08-19T03:09:10;94939.63;;;18.48;100.00
33155;BME280;19511;42.682;23.332;2022-08-19T03:11:36;94881.31;;;18.09;100.00
33155;BME280;19511;42.682;23.332;2022-08-19T03:14:04;94935.09;;;18.41;100.00
33155;BME280;19511;42.682;23.332;2022-08-19T03:16:31;94893.91;;;18.14;100.00
33155;BME280;19511;42.682;23.332;2022-08-19T03:18:58;94924.25;;;18.34;100.00
33155;BME280;19511;42.682;23.332;2022-08-19T03:21:27;94926.56;;;18.35;100.00
33155;BME280;19511;42.682;23.332;2022-08-19T03:23:55;94910.22;;;18.24;100.00
33155;BME280;19511;42.682;23.332;2022-08-19T03:26:21;94932.00;;;18.30;100.00
33155;BME280;19511;42.682;23.332;2022-08-19T03:28:47;94932.31;;;18.32;100.00
33155;BME280;19511;42.682;23.332;2022-08-19T03:31:16;94878.97;;;18.07;100.00
33155;BME280;19511;42.682;23.332;2022-08-19T03:33:42;94934.34;;;18.40;100.00
33155;BME280;19511;42.682;23.332;2022-08-19T03:38:36;94919.88;;;18.23;100.00
33155;BME280;19511;42.682;23.332;2022-08-19T03:41:04;94939.47;;;18.33;100.00
33155;BME280;19511;42.682;23.332;2022-08-19T03:43:32;94941.19;;;18.30;100.00
33155;BME280;19511;42.682;23.332;2022-08-19T03:46:09;94955.78;;;18.43;100.00
33155;BME280;19511;42.682;23.332;2022-08-19T03:48:36;94952.69;;;18.41;100.00
33155;BME280;19511;42.682;23.332;2022-08-19T03:51:06;94927.03;;;18.15;100.00
33155;BME280;19511;42.682;23.332;2022-08-19T03:53:33;94960.47;;;18.28;100.00
33155;BME280;19511;42.682;23.332;2022-08-19T03:56:00;94899.13;;;17.84;100.00
33155;BME280;19511;42.682;23.332;2022-08-19T03:58:28;94963.88;;;18.23;100.00
33155;BME280;19511;42.682;23.332;2022-08-19T04:00:55;94939.16;;;18.12;100.00
33155;BME280;19511;42.682;23.332;2022-08-19T04:03:22;94966.72;;;18.32;100.00
33155;BME280;19511;42.682;23.332;2022-08-19T04:05:48;94974.63;;;18.34;100.00
33155;BME280;19511;42.682;23.332;2022-08-19T04:08:14;94968.72;;;18.32;100.00
33155;BME280;19511;42.682;23.332;2022-08-19T04:10:46;94962.50;;;18.27;100.00
33155;BME280;19511;42.682;23.332;2022-08-19T04:13:12;94951.13;;;18.22;100.00
33155;BME280;19511;42.682;23.332;2022-08-19T04:15:42;94971.84;;;18.34;100.00
33155;BME280;19511;42.682;23.332;2022-08-19T04:18:09;94969.97;;;18.40;100.00
33155;BME280;19511;42.682;23.332;2022-08-19T04:20:40;94977.41;;;18.52;100.00
33155;BME280;19511;42.682;23.332;2022-08-19T04:23:06;94921.13;;;18.22;100.00
33155;BME280;19511;42.682;23.332;2022-08-19T04:25:39;94917.53;;;18.22;100.00
33155;BME280;19511;42.682;23.332;2022-08-19T04:28:06;94933.25;;;18.38;100.00
33155;BME280;19511;42.682;23.332;2022-08-19T04:30:40;94984.72;;;18.77;100.00
33155;BME280;19511;42.682;23.332;2022-08-19T04:33:06;94967.16;;;18.77;100.00
33155;BME280;19511;42.682;23.332;2022-08-19T04:35:37;94979.13;;;18.96;100.00
33155;BME280;19511;42.682;23.332;2022-08-19T04:38:03;94985.16;;;19.13;100.00
33155;BME280;19511;42.682;23.332;2022-08-19T04:40:28;94984.66;;;19.24;100.00
33155;BME280;19511;42.682;23.332;2022-08-19T04:43:12;94983.69;;;19.36;100.00
33155;BME280;19511;42.682;23.332;2022-08-19T04:45:43;94933.41;;;19.23;100.00
33155;BME280;19511;42.682;23.332;2022-08-19T04:48:09;94977.13;;;19.73;100.00
33155;BME280;19511;42.682;23.332;2022-08-19T04:50:35;94979.59;;;19.80;100.00
33155;BME280;19511;42.682;23.332;2022-08-19T04:53:01;94941.69;;;19.61;100.00
33155;BME280;19511;42.682;23.332;2022-08-19T04:55:26;94983.53;;;20.07;100.00
33155;BME280;19511;42.682;23.332;2022-08-19T04:57:53;94941.84;;;19.90;100.00
33155;BME280;19511;42.682;23.332;2022-08-19T05:00:19;94987.97;;;20.23;100.00
33155;BME280;19511;42.682;23.332;2022-08-19T05:02:44;94974.63;;;20.09;100.00
33155;BME280;19511;42.682;23.332;2022-08-19T05:05:10;94989.22;;;20.22;100.00
33155;BME280;19511;42.682;23.332;2022-08-19T05:07:36;94985.81;;;20.42;100.00
33155;BME280;19511;42.682;23.332;2022-08-19T05:10:04;94975.94;;;20.47;100.00
33155;BME280;19511;42.682;23.332;2022-08-19T05:12:30;94991.91;;;20.55;100.00
33155;BME280;19511;42.682;23.332;2022-08-19T05:14:57;94955.34;;;20.65;100.00
33155;BME280;19511;42.682;23.332;2022-08-19T05:17:22;94931.97;;;20.59;100.00
33155;BME280;19511;42.682;23.332;2022-08-19T05:19:48;94946.91;;;20.65;100.00
33155;BME280;19511;42.682;23.332;2022-08-19T05:22:32;94980.47;;;20.83;100.00
33155;BME280;19511;42.682;23.332;2022-08-19T05:25:03;94969.44;;;20.95;100.00
33155;BME280;19511;42.682;23.332;2022-08-19T05:27:29;94975.66;;;21.14;100.00
33155;BME280;19511;42.682;23.332;2022-08-19T05:29:54;94986.44;;;21.15;100.00
33155;BME280;19511;42.682;23.332;2022-08-19T05:32:20;94989.81;;;21.34;100.00
33155;BME280;19511;42.682;23.332;2022-08-19T05:34:46;94926.41;;;21.03;100.00
33155;BME280;19511;42.682;23.332;2022-08-19T05:37:12;94980.66;;;21.54;100.00
33155;BME280;19511;42.682;23.332;2022-08-19T05:39:38;94974.28;;;21.54;100.00
33155;BME280;19511;42.682;23.332;2022-08-19T05:42:06;94982.72;;;21.69;100.00
33155;BME280;19511;42.682;23.332;2022-08-19T05:44:34;94987.78;;;21.65;100.00
33155;BME280;19511;42.682;23.332;2022-08-19T05:47:03;94984.06;;;21.74;100.00
33155;BME280;19511;42.682;23.332;2022-08-19T05:49:32;94984.84;;;21.74;100.00
33155;BME280;19511;42.682;23.332;2022-08-19T05:51:58;94929.75;;;21.52;100.00
33155;BME280;19511;42.682;23.332;2022-08-19T05:54:25;94970.16;;;21.85;100.00
33155;BME280;19511;42.682;23.332;2022-08-19T05:56:52;94928.19;;;21.51;100.00
33155;BME280;19511;42.682;23.332;2022-08-19T05:59:19;94930.91;;;21.61;100.00
33155;BME280;19511;42.682;23.332;2022-08-19T06:01:47;94973.31;;;21.93;100.00
33155;BME280;19511;42.682;23.332;2022-08-19T06:04:16;94975.91;;;22.11;100.00
33155;BME280;19511;42.682;23.332;2022-08-19T06:06:44;94970.41;;;22.23;100.00
33155;BME280;19511;42.682;23.332;2022-08-19T06:09:09;94960.97;;;22.26;100.00
33155;BME280;19511;42.682;23.332;2022-08-19T06:11:44;94937.47;;;22.08;100.00
33155;BME280;19511;42.682;23.332;2022-08-19T06:14:14;94994.81;;;22.46;100.00
33155;BME280;19511;42.682;23.332;2022-08-19T06:16:41;94977.47;;;22.54;100.00
33155;BME280;19511;42.682;23.332;2022-08-19T06:19:11;94980.75;;;22.73;100.00
33155;BME280;19511;42.682;23.332;2022-08-19T06:21:39;94992.97;;;22.85;100.00
33155;BME280;19511;42.682;23.332;2022-08-19T06:24:07;94983.44;;;22.82;100.00
33155;BME280;19511;42.682;23.332;2022-08-19T06:26:34;94946.59;;;22.65;100.00
33155;BME280;19511;42.682;23.332;2022-08-19T06:29:00;94978.63;;;23.14;100.00
33155;BME280;19511;42.682;23.332;2022-08-19T06:31:27;94979.63;;;23.11;100.00
33155;BME280;19511;42.682;23.332;2022-08-19T06:33:53;94990.22;;;23.17;100.00
33155;BME280;19511;42.682;23.332;2022-08-19T06:36:21;94992.00;;;23.40;100.00
33155;BME280;19511;42.682;23.332;2022-08-19T06:38:47;94983.53;;;23.40;100.00
33155;BME280;19511;42.682;23.332;2022-08-19T06:41:13;94985.34;;;23.43;100.00
33155;BME280;19511;42.682;23.332;2022-08-19T06:43:38;94977.28;;;23.62;100.00
33155;BME280;19511;42.682;23.332;2022-08-19T06:46:13;94985.31;;;23.75;100.00
33155;BME280;19511;42.682;23.332;2022-08-19T06:48:39;94983.59;;;23.84;100.00
33155;BME280;19511;42.682;23.332;2022-08-19T06:51:04;94941.09;;;23.61;100.00
33155;BME280;19511;42.682;23.332;2022-08-19T06:53:32;94978.47;;;23.88;100.00
33155;BME280;19511;42.682;23.332;2022-08-19T06:55:57;94943.47;;;23.74;100.00
33155;BME280;19511;42.682;23.332;2022-08-19T06:58:28;94970.88;;;24.00;100.00
33155;BME280;19511;42.682;23.332;2022-08-19T07:00:58;94931.94;;;23.77;100.00
33155;BME280;19511;42.682;23.332;2022-08-19T07:03:28;94987.94;;;24.17;100.00
33155;BME280;19511;42.682;23.332;2022-08-19T07:05:55;94973.56;;;24.20;100.00
33155;BME280;19511;42.682;23.332;2022-08-19T07:08:21;94994.72;;;24.36;100.00
33155;BME280;19511;42.682;23.332;2022-08-19T07:10:46;94944.47;;;24.08;100.00
33155;BME280;19511;42.682;23.332;2022-08-19T07:13:13;94988.34;;;24.47;100.00
33155;BME280;19511;42.682;23.332;2022-08-19T07:15:38;94980.94;;;24.61;100.00
33155;BME280;19511;42.682;23.332;2022-08-19T07:18:04;94982.59;;;24.79;100.00
33155;BME280;19511;42.682;23.332;2022-08-19T07:20:30;94993.41;;;24.86;100.00
33155;BME280;19511;42.682;23.332;2022-08-19T07:22:55;94979.00;;;24.90;100.00
33155;BME280;19511;42.682;23.332;2022-08-19T07:25:21;94956.63;;;24.92;100.00
33155;BME280;19511;42.682;23.332;2022-08-19T07:27:49;94982.16;;;25.15;100.00
33155;BME280;19511;42.682;23.332;2022-08-19T07:30:14;94985.00;;;25.26;100.00
33155;BME280;19511;42.682;23.332;2022-08-19T07:32:40;94988.13;;;25.45;100.00
33155;BME280;19511;42.682;23.332;2022-08-19T07:35:06;94981.97;;;25.64;100.00
33155;BME280;19511;42.682;23.332;2022-08-19T07:37:35;94977.31;;;25.78;100.00
33155;BME280;19511;42.682;23.332;2022-08-19T07:40:04;94968.06;;;25.83;100.00
33155;BME280;19511;42.682;23.332;2022-08-19T07:42:30;94982.94;;;26.00;100.00
33155;BME280;19511;42.682;23.332;2022-08-19T07:44:56;94982.19;;;26.11;100.00
33155;BME280;19511;42.682;23.332;2022-08-19T07:47:21;94972.16;;;26.16;100.00
33155;BME280;19511;42.682;23.332;2022-08-19T07:49:47;94965.88;;;26.34;100.00
33155;BME280;19511;42.682;23.332;2022-08-19T07:52:14;94972.50;;;26.60;100.00
33155;BME280;19511;42.682;23.332;2022-08-19T07:54:40;94918.97;;;26.33;100.00
33155;BME280;19511;42.682;23.332;2022-08-19T07:57:06;94977.59;;;26.72;100.00
33155;BME280;19511;42.682;23.332;2022-08-19T07:59:32;94976.78;;;26.89;100.00
33155;BME280;19511;42.682;23.332;2022-08-19T08:01:59;94965.63;;;27.02;100.00
33155;BME280;19511;42.682;23.332;2022-08-19T08:04:26;94918.78;;;26.79;100.00
33155;BME280;19511;42.682;23.332;2022-08-19T08:07:10;94972.53;;;27.13;100.00
33155;BME280;19511;42.682;23.332;2022-08-19T08:09:54;94953.53;;;27.32;99.71
33155;BME280;19511;42.682;23.332;2022-08-19T08:12:30;94973.56;;;27.51;100.00
33155;BME280;19511;42.682;23.332;2022-08-19T08:14:58;94973.47;;;27.63;100.00
33155;BME280;19511;42.682;23.332;2022-08-19T08:17:29;94961.59;;;27.64;100.00
33155;BME280;19511;42.682;23.332;2022-08-19T08:19:55;94955.22;;;27.83;98.18
33155;BME280;19511;42.682;23.332;2022-08-19T08:22:23;94955.03;;;28.06;96.11
33155;BME280;19511;42.682;23.332;2022-08-19T08:25:16;94953.25;;;28.27;93.99
33155;BME280;19511;42.682;23.332;2022-08-19T08:27:43;94957.75;;;28.42;90.51
33155;BME280;19511;42.682;23.332;2022-08-19T08:30:19;94913.69;;;28.29;88.69
33155;BME280;19511;42.682;23.332;2022-08-19T08:32:44;94947.28;;;28.50;88.86
33155;BME280;19511;42.682;23.332;2022-08-19T08:35:13;94937.38;;;28.57;88.56
33155;BME280;19511;42.682;23.332;2022-08-19T08:37:39;94945.50;;;28.72;85.96
33155;BME280;19511;42.682;23.332;2022-08-19T08:40:09;94938.88;;;28.63;86.86
33155;BME280;19511;42.682;23.332;2022-08-19T08:42:52;94937.66;;;28.78;83.22
33155;BME280;19511;42.682;23.332;2022-08-19T08:45:20;94933.50;;;28.79;83.76
33155;BME280;19511;42.682;23.332;2022-08-19T08:47:48;94898.50;;;28.84;86.59
33155;BME280;19511;42.682;23.332;2022-08-19T08:50:29;94893.34;;;29.02;82.13
33155;BME280;19511;42.682;23.332;2022-08-19T08:52:58;94927.47;;;29.40;84.75
33155;BME280;19511;42.682;23.332;2022-08-19T08:55:26;94929.50;;;29.58;86.72
33155;BME280;19511;42.682;23.332;2022-08-19T08:58:01;94898.16;;;29.58;80.98
33155;BME280;19511;42.682;23.332;2022-08-19T09:00:31;94878.69;;;29.76;81.17
33155;BME280;19511;42.682;23.332;2022-08-19T09:02:58;94912.16;;;30.16;77.45
33155;BME280;19511;42.682;23.332;2022-08-19T09:05:33;94913.16;;;30.18;75.04
33155;BME280;19511;42.682;23.332;2022-08-19T09:08:25;94919.31;;;30.36;75.89
33155;BME280;19511;42.682;23.332;2022-08-19T09:10:54;94913.41;;;30.34;72.00
33155;BME280;19511;42.682;23.332;2022-08-19T09:16:07;94912.09;;;30.61;78.29
33155;BME280;19511;42.682;23.332;2022-08-19T09:18:51;94912.47;;;30.79;79.50
33155;BME280;19511;42.682;23.332;2022-08-19T09:21:19;94903.47;;;30.88;68.57
33155;BME280;19511;42.682;23.332;2022-08-19T09:23:46;94885.00;;;30.89;70.57
33155;BME280;19511;42.682;23.332;2022-08-19T09:26:15;94847.78;;;30.82;66.34
33155;BME280;19511;42.682;23.332;2022-08-19T09:28:42;94889.91;;;31.02;56.86
33155;BME280;19511;42.682;23.332;2022-08-19T09:31:14;94891.88;;;30.73;53.63
33155;BME280;19511;42.682;23.332;2022-08-19T09:33:39;94890.97;;;30.78;55.21
33155;BME280;19511;42.682;23.332;2022-08-19T09:36:11;94840.28;;;30.57;57.28
33155;BME280;19511;42.682;23.332;2022-08-19T09:38:38;94888.78;;;31.05;49.23
33155;BME280;19511;42.682;23.332;2022-08-19T09:41:07;94825.91;;;30.84;50.48
33155;BME280;19511;42.682;23.332;2022-08-19T09:43:34;94874.56;;;31.26;59.37
33155;BME280;19511;42.682;23.332;2022-08-19T09:46:03;94833.31;;;31.14;52.06
33155;BME280;19511;42.682;23.332;2022-08-19T09:48:31;94880.53;;;31.57;53.23
33155;BME280;19511;42.682;23.332;2022-08-19T09:51:03;94839.44;;;31.39;50.58
33155;BME280;19511;42.682;23.332;2022-08-19T09:53:28;94877.22;;;31.67;50.99
33155;BME280;19511;42.682;23.332;2022-08-19T09:55:57;94838.47;;;31.37;47.20
33155;BME280;19511;42.682;23.332;2022-08-19T09:58:23;94874.97;;;31.73;47.46
33155;BME280;19511;42.682;23.332;2022-08-19T10:00:56;94868.78;;;31.82;47.57
33155;BME280;19511;42.682;23.332;2022-08-19T10:03:22;94863.09;;;31.90;45.12
33155;BME280;19511;42.682;23.332;2022-08-19T10:05:48;94867.19;;;32.02;45.68
33155;BME280;19511;42.682;23.332;2022-08-19T10:08:18;94863.41;;;32.07;46.84
33155;BME280;19511;42.682;23.332;2022-08-19T10:10:47;94855.03;;;32.10;45.50
33155;BME280;19511;42.682;23.332;2022-08-19T10:13:15;94804.13;;;31.79;47.45
33155;BME280;19511;42.682;23.332;2022-08-19T10:15:42;94846.47;;;32.17;52.17
33155;BME280;19511;42.682;23.332;2022-08-19T10:18:07;94860.78;;;32.17;53.00
33155;BME280;19511;42.682;23.332;2022-08-19T10:20:33;94841.59;;;31.97;50.11
33155;BME280;19511;42.682;23.332;2022-08-19T10:23:01;94846.34;;;31.94;48.83
33155;BME280;19511;42.682;23.332;2022-08-19T10:25:26;94847.53;;;31.99;50.88
33155;BME280;19511;42.682;23.332;2022-08-19T10:27:52;94799.13;;;31.72;59.63
33155;BME280;19511;42.682;23.332;2022-08-19T10:30:18;94840.16;;;32.11;49.73
33155;BME280;19511;42.682;23.332;2022-08-19T10:32:44;94833.78;;;32.26;48.98
33155;BME280;19511;42.682;23.332;2022-08-19T10:35:11;94796.22;;;32.01;46.99
33155;BME280;19511;42.682;23.332;2022-08-19T10:37:37;94837.28;;;32.40;44.94
33155;BME280;19511;42.682;23.332;2022-08-19T10:40:05;94829.63;;;32.35;47.30
33155;BME280;19511;42.682;23.332;2022-08-19T10:42:32;94813.25;;;32.43;49.58
33155;BME280;19511;42.682;23.332;2022-08-19T10:44:57;94837.00;;;32.67;47.07
33155;BME280;19511;42.682;23.332;2022-08-19T10:47:23;94832.41;;;32.64;43.67
33155;BME280;19511;42.682;23.332;2022-08-19T10:49:49;94823.59;;;32.54;44.93
33155;BME280;19511;42.682;23.332;2022-08-19T10:52:33;94815.94;;;32.49;45.93
33155;BME280;19511;42.682;23.332;2022-08-19T10:55:00;94826.81;;;32.50;45.19
33155;BME280;19511;42.682;23.332;2022-08-19T10:57:44;94818.84;;;32.64;45.85
33155;BME280;19511;42.682;23.332;2022-08-19T11:00:11;94818.88;;;32.72;47.32
33155;BME280;19511;42.682;23.332;2022-08-19T11:02:36;94821.41;;;32.83;45.33
33155;BME280;19511;42.682;23.332;2022-08-19T11:05:02;94820.13;;;33.00;44.37
33155;BME280;19511;42.682;23.332;2022-08-19T11:07:28;94818.03;;;33.08;44.05
33155;BME280;19511;42.682;23.332;2022-08-19T11:09:53;94825.69;;;33.13;44.26
33155;BME280;19511;42.682;23.332;2022-08-19T11:12:19;94822.06;;;33.20;43.74
33155;BME280;19511;42.682;23.332;2022-08-19T11:14:44;94811.94;;;33.19;44.01
33155;BME280;19511;42.682;23.332;2022-08-19T11:17:10;94806.22;;;33.12;44.42
33155;BME280;19511;42.682;23.332;2022-08-19T11:19:39;94764.16;;;32.99;44.59
33155;BME280;19511;42.682;23.332;2022-08-19T11:22:10;94810.78;;;33.22;43.22
33155;BME280;19511;42.682;23.332;2022-08-19T11:24:36;94814.03;;;33.19;42.21
33155;BME280;19511;42.682;23.332;2022-08-19T11:27:07;94808.88;;;33.10;44.41
33155;BME280;19511;42.682;23.332;2022-08-19T11:29:35;94757.47;;;32.88;43.25
33155;BME280;19511;42.682;23.332;2022-08-19T11:32:07;94761.69;;;32.95;44.11
33155;BME280;19511;42.682;23.332;2022-08-19T11:34:33;94802.75;;;33.05;42.42
33155;BME280;19511;42.682;23.332;2022-08-19T11:37:01;94794.75;;;33.12;42.54
33155;BME280;19511;42.682;23.332;2022-08-19T11:39:30;94794.19;;;33.21;44.02
33155;BME280;19511;42.682;23.332;2022-08-19T11:41:58;94788.28;;;33.34;42.32
33155;BME280;19511;42.682;23.332;2022-08-19T11:44:24;94782.75;;;33.36;42.22
33155;BME280;19511;42.682;23.332;2022-08-19T11:46:50;94784.09;;;33.51;41.50
33155;BME280;19511;42.682;23.332;2022-08-19T11:49:19;94742.38;;;33.27;43.11
33155;BME280;19511;42.682;23.332;2022-08-19T11:51:45;94789.97;;;33.68;41.78
33155;BME280;19511;42.682;23.332;2022-08-19T11:54:12;94781.00;;;33.57;42.12
33155;BME280;19511;42.682;23.332;2022-08-19T11:56:39;94740.31;;;33.04;43.54
33155;BME280;19511;42.682;23.332;2022-08-19T11:59:04;94781.00;;;33.57;44.34
33155;BME280;19511;42.682;23.332;2022-08-19T12:01:30;94776.97;;;33.75;43.45
33155;BME280;19511;42.682;23.332;2022-08-19T12:03:57;94775.63;;;33.76;43.21
33155;BME280;19511;42.682;23.332;2022-08-19T12:06:29;94738.22;;;33.28;43.50
33155;BME280;19511;42.682;23.332;2022-08-19T12:08:58;94713.00;;;32.95;43.80
33155;BME280;19511;42.682;23.332;2022-08-19T12:11:25;94754.84;;;33.29;42.43
33155;BME280;19511;42.682;23.332;2022-08-19T12:13:54;94756.34;;;33.38;45.77
33155;BME280;19511;42.682;23.332;2022-08-19T12:16:24;94752.34;;;33.49;41.53
33155;BME280;19511;42.682;23.332;2022-08-19T12:18:50;94695.59;;;33.16;43.09
33155;BME280;19511;42.682;23.332;2022-08-19T12:21:19;94744.66;;;33.67;43.07
33155;BME280;19511;42.682;23.332;2022-08-19T12:26:25;94744.25;;;33.78;41.98
33155;BME280;19511;42.682;23.332;2022-08-19T12:28:52;94691.34;;;33.64;41.71
33155;BME280;19511;42.682;23.332;2022-08-19T12:31:17;94694.59;;;33.68;41.19
33155;BME280;19511;42.682;23.332;2022-08-19T12:33:44;94728.97;;;33.76;42.15
33155;BME280;19511;42.682;23.332;2022-08-19T12:36:12;94726.25;;;34.01;42.31
33155;BME280;19511;42.682;23.332;2022-08-19T12:38:39;94668.41;;;33.64;40.94
33155;BME280;19511;42.682;23.332;2022-08-19T12:41:06;94728.16;;;34.06;42.00
33155;BME280;19511;42.682;23.332;2022-08-19T12:43:35;94721.59;;;34.21;41.11
33155;BME280;19511;42.682;23.332;2022-08-19T12:46:02;94714.00;;;34.08;40.26
33155;BME280;19511;42.682;23.332;2022-08-19T12:48:29;94720.72;;;33.95;39.35
33155;BME280;19511;42.682;23.332;2022-08-19T12:50:55;94715.88;;;34.13;39.19
33155;BME280;19511;42.682;23.332;2022-08-19T12:53:20;94711.03;;;34.24;41.22
33155;BME280;19511;42.682;23.332;2022-08-19T12:55:46;94700.50;;;34.26;40.89
33155;BME280;19511;42.682;23.332;2022-08-19T12:58:11;94671.19;;;33.95;40.51